Time;durP1;ratioP1;P1;durP2;ratioP2;P2;SDS_P1;SDS_P2;PMS_P1;PMS_P2;Temp;Humidity;BMP_temperature;BMP_pressure;BME280_temperature;BME280_humidity;BME280_pressure;Samples;Min_cycle;Max_cycle;Signal;HPM_P1;HPM_P2
2022/04/15 00:01:06;;;;;;;14.20;3.38;;;;;;;;;;5061348;28;20114;-89
2022/04/15 00:03:36;;;;;;;12.00;4.53;;;;;;;;;;5070934;28;20656;-90
2022/04/15 00:06:08;;;;;;;14.73;4.45;;;;;;;;;;5075546;28;20046;-89
2022/04/15 00:08:36;;;;;;;14.52;4.28;;;;;;;;;;5085243;28;20387;-87
2022/04/15 00:11:03;;;;;;;18.55;4.95;;;;;;;;;;5072875;28;20024;-87
2022/04/15 00:13:31;;;;;;;21.92;5.20;;;;;;;;;;5074405;28;20024;-87
2022/04/15 00:15:58;;;;;;;13.68;4.95;;;;;;;;;;5084076;28;20035;-88
2022/04/15 00:18:28;;;;;;;19.25;4.55;;;;;;;;;;5085814;28;20154;-87
2022/04/15 00:20:55;;;;;;;17.05;4.82;;;;;;;;;;5073573;28;20525;-87
2022/04/15 00:23:22;;;;;;;15.45;4.38;;;;;;;;;;5074334;28;20028;-87
2022/04/15 00:25:53;;;;;;;12.43;3.78;;;;;;;;;;5088134;28;20490;-85
2022/04/15 00:28:20;;;;;;;15.07;4.75;;;;;;;;;;5069746;28;20130;-87
2022/04/15 00:30:46;;;;;;;9.43;4.38;;;;;;;;;;5081511;28;20388;-86
2022/04/15 00:36:05;;;;;;;15.43;4.35;;;;;;;;;;5066740;28;20040;-86
2022/04/15 00:38:32;;;;;;;15.98;4.40;;;;;;;;;;5075249;28;20111;-88
2022/04/15 00:40:59;;;;;;;17.08;5.10;;;;;;;;;;5066582;28;20424;-89
2022/04/15 00:43:25;;;;;;;17.65;5.55;;;;;;;;;;5074908;28;20508;-88
2022/04/15 00:45:52;;;;;;;14.65;3.92;;;;;;;;;;5077403;28;20020;-89
2022/04/15 00:48:19;;;;;;;12.98;3.97;;;;;;;;;;5074807;28;20021;-88
2022/04/15 00:50:58;;;;;;;18.38;4.30;;;;;;;;;;5074215;28;20063;-90
2022/04/15 00:53:25;;;;;;;10.32;4.05;;;;;;;;;;5080734;28;20032;-90
2022/04/15 00:55:59;;;;;;;11.75;3.88;;;;;;;;;;5090266;28;20028;-90
2022/04/15 00:58:26;;;;;;;14.80;4.40;;;;;;;;;;5086082;28;20024;-89
2022/04/15 01:00:54;;;;;;;16.65;3.83;;;;;;;;;;5084248;28;20089;-89
2022/04/15 01:03:29;;;;;;;6.05;3.03;;;;;;;;;;5077740;28;20032;-88
2022/04/15 01:05:58;;;;;;;11.82;3.65;;;;;;;;;;5087525;28;20450;-90
2022/04/15 01:08:27;;;;;;;12.85;3.08;;;;;;;;;;5085876;28;20022;-89
2022/04/15 01:10:53;;;;;;;13.00;3.50;;;;;;;;;;5070204;28;20016;-90
2022/04/15 01:13:22;;;;;;;9.85;3.03;;;;;;;;;;5072716;28;20059;-89
2022/04/15 01:15:49;;;;;;;11.25;3.35;;;;;;;;;;5079274;28;20028;-88
2022/04/15 01:18:16;;;;;;;13.38;2.83;;;;;;;;;;5076059;28;20028;-89
2022/04/15 01:20:42;;;;;;;9.40;3.17;;;;;;;;;;5076707;28;20773;-89
2022/04/15 01:23:27;;;;;;;8.93;2.70;;;;;;;;;;5082120;28;20040;-89
2022/04/15 01:25:54;;;;;;;17.65;3.88;;;;;;;;;;5076852;28;20039;-89
2022/04/15 01:28:24;;;;;;;10.07;3.40;;;;;;;;;;5073385;28;20088;-88
2022/04/15 01:30:51;;;;;;;14.88;2.67;;;;;;;;;;5090803;28;20374;-89
2022/04/15 01:33:18;;;;;;;7.50;2.20;;;;;;;;;;5078388;28;20028;-89
2022/04/15 01:35:44;;;;;;;13.52;3.35;;;;;;;;;;5076714;28;20056;-89
2022/04/15 01:38:14;;;;;;;16.08;3.10;;;;;;;;;;5094630;28;20111;-89
2022/04/15 01:40:40;;;;;;;12.80;3.33;;;;;;;;;;5076610;28;20501;-88
2022/04/15 01:43:12;;;;;;;13.50;2.72;;;;;;;;;;5077440;28;20032;-90
2022/04/15 01:45:38;;;;;;;11.45;2.60;;;;;;;;;;5091578;28;20016;-89
2022/04/15 01:48:08;;;;;;;16.23;2.78;;;;;;;;;;5077293;28;20542;-90
2022/04/15 01:50:34;;;;;;;13.63;2.28;;;;;;;;;;5074323;28;20020;-89
2022/04/15 01:53:06;;;;;;;11.02;2.83;;;;;;;;;;5076822;28;20028;-89
2022/04/15 01:55:32;;;;;;;14.48;2.63;;;;;;;;;;5076605;28;20036;-90
2022/04/15 01:57:59;;;;;;;13.18;2.53;;;;;;;;;;5078825;28;20029;-89
2022/04/15 02:00:25;;;;;;;13.55;2.65;;;;;;;;;;5073497;28;20036;-89
2022/04/15 02:02:52;;;;;;;15.63;2.45;;;;;;;;;;5054278;28;20543;-88
2022/04/15 02:05:18;;;;;;;13.32;2.55;;;;;;;;;;5062689;28;20490;-88
2022/04/15 02:07:45;;;;;;;19.65;2.70;;;;;;;;;;5057238;28;20383;-88
2022/04/15 02:10:11;;;;;;;13.63;2.75;;;;;;;;;;5055970;28;20028;-87
2022/04/15 02:12:37;;;;;;;13.27;2.03;;;;;;;;;;5056189;28;20040;-87
2022/04/15 02:15:04;;;;;;;12.57;1.75;;;;;;;;;;5055147;28;20642;-87
2022/04/15 02:17:31;;;;;;;10.77;2.17;;;;;;;;;;5050469;28;20484;-87
2022/04/15 02:19:57;;;;;;;15.65;2.85;;;;;;;;;;5040801;28;20395;-87
2022/04/15 02:22:23;;;;;;;14.10;2.60;;;;;;;;;;5049784;28;20037;-87
2022/04/15 02:24:50;;;;;;;19.25;2.90;;;;;;;;;;5052119;28;20170;-87
2022/04/15 02:27:16;;;;;;;10.60;2.88;;;;;;;;;;5049578;28;20037;-87
2022/04/15 02:29:43;;;;;;;12.68;2.28;;;;;;;;;;5054717;28;20021;-87
2022/04/15 02:32:09;;;;;;;7.68;2.25;;;;;;;;;;5048585;28;20048;-87
2022/04/15 02:34:38;;;;;;;14.10;1.75;;;;;;;;;;5065970;28;20040;-87
2022/04/15 02:37:04;;;;;;;10.18;2.45;;;;;;;;;;5054773;28;20032;-87
2022/04/15 02:39:35;;;;;;;11.20;1.85;;;;;;;;;;5072033;28;20032;-87
2022/04/15 02:42:02;;;;;;;18.50;2.15;;;;;;;;;;5045628;28;20488;-87
2022/04/15 02:44:30;;;;;;;10.48;1.88;;;;;;;;;;5048864;28;20021;-86
2022/04/15 02:47:00;;;;;;;11.32;2.08;;;;;;;;;;5052882;28;20783;-86
2022/04/15 02:49:28;;;;;;;12.93;2.17;;;;;;;;;;5054379;28;20024;-86
2022/04/15 02:51:55;;;;;;;16.92;2.40;;;;;;;;;;5050381;28;20027;-85
2022/04/15 02:54:25;;;;;;;11.75;1.98;;;;;;;;;;5042499;28;20487;-85
2022/04/15 02:56:52;;;;;;;13.27;1.50;;;;;;;;;;5051259;28;20025;-86
2022/04/15 02:59:20;;;;;;;9.13;1.75;;;;;;;;;;5055745;28;20029;-86
2022/04/15 03:01:48;;;;;;;12.43;2.13;;;;;;;;;;5074610;28;20097;-85
2022/04/15 03:04:14;;;;;;;16.23;2.08;;;;;;;;;;5070279;28;20027;-85
2022/04/15 03:06:41;;;;;;;12.85;2.05;;;;;;;;;;5071859;28;20403;-85
2022/04/15 03:09:07;;;;;;;11.60;1.95;;;;;;;;;;5068646;28;20028;-86
2022/04/15 03:11:36;;;;;;;16.67;2.65;;;;;;;;;;5074345;28;20028;-85
2022/04/15 03:14:05;;;;;;;18.50;2.08;;;;;;;;;;5067026;28;20035;-85
2022/04/15 03:16:31;;;;;;;15.13;2.28;;;;;;;;;;5065509;28;20112;-85
2022/04/15 03:19:01;;;;;;;17.35;2.58;;;;;;;;;;5076189;28;20020;-85
2022/04/15 03:21:27;;;;;;;14.90;1.73;;;;;;;;;;4723962;28;9999824;-84
2022/04/15 03:23:55;;;;;;;13.27;2.00;;;;;;;;;;5067462;28;20118;-84
2022/04/15 03:26:22;;;;;;;14.57;2.83;;;;;;;;;;5069056;28;20097;-84
2022/04/15 03:28:48;;;;;;;14.98;2.22;;;;;;;;;;5072288;28;20038;-84
2022/04/15 03:31:15;;;;;;;14.55;1.95;;;;;;;;;;5069614;28;20131;-84
2022/04/15 03:33:41;;;;;;;13.75;2.42;;;;;;;;;;5074287;28;20111;-84
2022/04/15 03:36:07;;;;;;;14.25;2.13;;;;;;;;;;5079898;28;20838;-84
2022/04/15 03:38:34;;;;;;;21.70;2.70;;;;;;;;;;5086655;28;20036;-86
2022/04/15 03:41:00;;;;;;;12.82;2.42;;;;;;;;;;5073645;28;20038;-86
2022/04/15 03:43:26;;;;;;;18.92;2.85;;;;;;;;;;5071773;28;20140;-86
2022/04/15 03:45:53;;;;;;;18.02;2.10;;;;;;;;;;5073051;28;20490;-86
2022/04/15 03:48:20;;;;;;;12.75;2.83;;;;;;;;;;5070343;28;20024;-86
2022/04/15 03:50:46;;;;;;;19.27;3.15;;;;;;;;;;5069713;28;20031;-86
2022/04/15 03:53:12;;;;;;;23.75;3.03;;;;;;;;;;5072771;28;20517;-86
2022/04/15 03:55:39;;;;;;;12.52;3.10;;;;;;;;;;5069276;28;20165;-87
2022/04/15 03:58:05;;;;;;;10.45;2.17;;;;;;;;;;5069882;28;20028;-87
2022/04/15 04:00:32;;;;;;;15.85;2.60;;;;;;;;;;5067160;28;20044;-89
2022/04/15 04:02:58;;;;;;;10.38;1.67;;;;;;;;;;5075371;28;20119;-88
2022/04/15 04:05:24;;;;;;;12.40;1.90;;;;;;;;;;5072669;28;20024;-89
2022/04/15 04:07:52;;;;;;;13.73;2.60;;;;;;;;;;5073806;28;20067;-89
2022/04/15 04:10:19;;;;;;;11.90;2.25;;;;;;;;;;5063136;28;20020;-86
2022/04/15 04:12:45;;;;;;;11.65;1.98;;;;;;;;;;5086918;28;20379;-86
2022/04/15 04:15:13;;;;;;;13.35;2.38;;;;;;;;;;5070449;28;20042;-88
2022/04/15 04:17:39;;;;;;;31.65;4.13;;;;;;;;;;5070705;28;20032;-88
2022/04/15 04:20:06;;;;;;;18.85;2.45;;;;;;;;;;5070590;28;20488;-88
2022/04/15 04:22:34;;;;;;;19.35;3.15;;;;;;;;;;5071310;28;20028;-89
2022/04/15 04:25:02;;;;;;;14.07;2.97;;;;;;;;;;5074922;28;20036;-89
2022/04/15 04:27:31;;;;;;;33.97;3.97;;;;;;;;;;4835349;28;10001320;-90
2022/04/15 04:29:58;;;;;;;10.23;2.25;;;;;;;;;;5068918;28;20241;-88
2022/04/15 04:32:28;;;;;;;11.77;2.80;;;;;;;;;;5064606;28;20353;-89
2022/04/15 04:34:54;;;;;;;19.33;2.92;;;;;;;;;;5073754;28;20028;-90
2022/04/15 04:37:26;;;;;;;10.20;1.75;;;;;;;;;;5068051;28;20032;-89
2022/04/15 04:39:52;;;;;;;12.00;1.42;;;;;;;;;;5073839;28;20020;-89
2022/04/15 04:42:20;;;;;;;9.88;1.30;;;;;;;;;;5074797;28;20032;-90
2022/04/15 04:44:47;;;;;;;13.80;2.03;;;;;;;;;;5088675;28;20031;-88
2022/04/15 04:47:13;;;;;;;17.05;2.63;;;;;;;;;;5071041;28;20032;-88
2022/04/15 04:49:41;;;;;;;8.27;1.60;;;;;;;;;;5074504;28;20016;-88
2022/04/15 04:52:09;;;;;;;14.60;1.45;;;;;;;;;;5064360;28;20032;-88
2022/04/15 04:54:35;;;;;;;11.70;1.40;;;;;;;;;;5069285;28;20033;-89
2022/04/15 04:57:05;;;;;;;9.07;1.42;;;;;;;;;;5072569;28;20051;-87
2022/04/15 04:59:33;;;;;;;10.15;1.85;;;;;;;;;;5069226;28;20499;-88
2022/04/15 05:02:00;;;;;;;15.50;1.00;;;;;;;;;;5074092;28;20032;-88
2022/04/15 05:04:27;;;;;;;10.00;1.92;;;;;;;;;;5088713;28;20051;-88
2022/04/15 05:06:55;;;;;;;10.97;1.57;;;;;;;;;;4722725;28;10000029;-88
2022/04/15 05:09:22;;;;;;;11.50;2.22;;;;;;;;;;5073215;28;20099;-89
2022/04/15 05:11:51;;;;;;;11.38;1.67;;;;;;;;;;5074222;28;20101;-89
2022/04/15 05:14:17;;;;;;;12.35;1.50;;;;;;;;;;5068808;28;20051;-87
2022/04/15 05:16:46;;;;;;;10.32;0.98;;;;;;;;;;5074809;28;20027;-86
2022/04/15 05:19:12;;;;;;;11.65;1.38;;;;;;;;;;5073511;28;20037;-86
2022/04/15 05:22:02;;;;;;;10.80;1.45;;;;;;;;;;5064875;28;20472;-86
2022/04/15 05:24:28;;;;;;;11.07;1.35;;;;;;;;;;5044372;28;20897;-86
2022/04/15 05:26:55;;;;;;;10.27;1.20;;;;;;;;;;5077280;28;20376;-85
2022/04/15 05:29:27;;;;;;;6.53;0.82;;;;;;;;;;5077488;28;20106;-85
2022/04/15 05:31:53;;;;;;;6.40;1.20;;;;;;;;;;5077075;28;20051;-86
2022/04/15 05:34:24;;;;;;;13.15;1.50;;;;;;;;;;5070574;28;20052;-86
2022/04/15 05:36:50;;;;;;;10.43;1.25;;;;;;;;;;5073770;28;20108;-87
2022/04/15 05:39:19;;;;;;;9.90;1.50;;;;;;;;;;5077677;28;20035;-86
2022/04/15 05:41:45;;;;;;;15.05;1.30;;;;;;;;;;5077774;28;20372;-86
2022/04/15 05:44:14;;;;;;;11.60;1.42;;;;;;;;;;5077190;28;20063;-87
2022/04/15 05:46:42;;;;;;;10.70;1.50;;;;;;;;;;5077778;28;20479;-87
2022/04/15 05:49:16;;;;;;;9.20;1.13;;;;;;;;;;5077646;28;20738;-86
2022/04/15 05:51:43;;;;;;;9.05;0.80;;;;;;;;;;5075637;28;20021;-87
2022/04/15 05:54:10;;;;;;;10.05;1.17;;;;;;;;;;5074379;28;20025;-86
2022/04/15 05:56:36;;;;;;;9.18;1.60;;;;;;;;;;5076984;28;20120;-89
2022/04/15 05:59:03;;;;;;;7.63;1.08;;;;;;;;;;5075349;28;20012;-89
2022/04/15 06:01:31;;;;;;;12.23;1.80;;;;;;;;;;5089665;28;20096;-86
2022/04/15 06:03:58;;;;;;;13.35;1.33;;;;;;;;;;5077146;28;20028;-86
2022/04/15 06:06:27;;;;;;;13.63;1.48;;;;;;;;;;5074586;28;20051;-87
2022/04/15 06:08:54;;;;;;;11.20;1.35;;;;;;;;;;5090531;28;20428;-88
2022/04/15 06:11:21;;;;;;;11.18;1.50;;;;;;;;;;4727063;28;10000448;-86
2022/04/15 06:13:47;;;;;;;12.85;1.70;;;;;;;;;;5077263;28;20129;-87
2022/04/15 06:16:21;;;;;;;11.95;1.70;;;;;;;;;;5095610;28;20024;-86
2022/04/15 06:18:47;;;;;;;12.63;1.60;;;;;;;;;;5075297;28;20020;-85
2022/04/15 06:21:16;;;;;;;11.68;1.63;;;;;;;;;;5075478;28;20119;-87
2022/04/15 06:23:42;;;;;;;10.13;1.23;;;;;;;;;;5072130;28;20081;-87
2022/04/15 06:26:18;;;;;;;14.82;1.38;;;;;;;;;;5073677;28;20837;-87
2022/04/15 06:29:08;;;;;;;12.93;2.03;;;;;;;;;;5071769;28;20024;-88
2022/04/15 06:31:35;;;;;;;8.35;1.45;;;;;;;;;;5051147;28;20470;-88
2022/04/15 06:34:01;;;;;;;13.88;1.85;;;;;;;;;;5056408;28;20473;-87
2022/04/15 06:36:27;;;;;;;10.63;2.30;;;;;;;;;;5063636;28;20024;-86
2022/04/15 06:38:55;;;;;;;13.50;1.25;;;;;;;;;;5076832;28;20031;-86
2022/04/15 06:41:21;;;;;;;12.73;1.90;;;;;;;;;;5077054;28;20024;-87
2022/04/15 06:43:49;;;;;;;11.77;1.55;;;;;;;;;;5078285;28;20024;-87
2022/04/15 06:46:15;;;;;;;11.13;1.60;;;;;;;;;;5076938;28;20050;-86
2022/04/15 06:48:45;;;;;;;8.52;1.17;;;;;;;;;;5074357;28;20076;-87
2022/04/15 06:51:11;;;;;;;14.95;1.48;;;;;;;;;;5096533;28;20025;-88
2022/04/15 06:53:39;;;;;;;11.18;1.63;;;;;;;;;;5076116;28;20122;-86
2022/04/15 06:56:05;;;;;;;10.30;1.27;;;;;;;;;;5078945;28;20487;-87
2022/04/15 06:58:33;;;;;;;14.85;1.83;;;;;;;;;;5065982;28;20081;-88
2022/04/15 07:00:59;;;;;;;13.75;1.65;;;;;;;;;;5071637;28;20043;-87
2022/04/15 07:03:29;;;;;;;10.30;1.65;;;;;;;;;;5066388;28;20123;-88
2022/04/15 07:05:55;;;;;;;10.73;1.65;;;;;;;;;;5073438;28;20468;-89
2022/04/15 07:08:38;;;;;;;13.90;1.48;;;;;;;;;;5073483;28;20098;-88
2022/04/15 07:11:04;;;;;;;6.47;1.17;;;;;;;;;;5075759;28;20024;-88
2022/04/15 07:13:32;;;;;;;12.30;1.20;;;;;;;;;;5068158;28;20562;-88
2022/04/15 07:15:58;;;;;;;13.68;1.23;;;;;;;;;;5072338;28;20390;-88
2022/04/15 07:18:27;;;;;;;9.85;1.60;;;;;;;;;;5074204;28;20048;-89
2022/04/15 07:20:54;;;;;;;8.90;1.40;;;;;;;;;;5077102;28;20533;-88
2022/04/15 07:23:23;;;;;;;15.38;2.15;;;;;;;;;;5073296;28;20048;-89
2022/04/15 07:25:49;;;;;;;10.88;1.80;;;;;;;;;;5073938;28;20055;-87
2022/04/15 07:28:19;;;;;;;12.13;2.03;;;;;;;;;;5067031;28;20509;-87
2022/04/15 07:30:45;;;;;;;7.50;1.58;;;;;;;;;;5069765;28;20028;-88
2022/04/15 07:33:12;;;;;;;15.65;2.70;;;;;;;;;;5075791;28;20118;-90
2022/04/15 07:35:38;;;;;;;13.18;1.70;;;;;;;;;;5075938;28;20032;-88
2022/04/15 07:38:04;;;;;;;14.50;2.00;;;;;;;;;;5076235;28;20031;-88
2022/04/15 07:40:31;;;;;;;15.48;2.60;;;;;;;;;;5075510;28;20062;-89
2022/04/15 07:42:59;;;;;;;13.75;2.47;;;;;;;;;;5070644;28;20028;-89
2022/04/15 07:45:28;;;;;;;12.27;2.35;;;;;;;;;;5070426;28;20020;-89
2022/04/15 07:47:55;;;;;;;12.18;2.42;;;;;;;;;;5071924;28;20141;-87
2022/04/15 07:50:23;;;;;;;16.88;2.85;;;;;;;;;;5065863;28;20020;-90
2022/04/15 07:52:57;;;;;;;13.32;2.78;;;;;;;;;;5089002;28;20398;-89
2022/04/15 07:55:23;;;;;;;17.45;2.40;;;;;;;;;;5075498;28;20035;-88
2022/04/15 07:57:50;;;;;;;15.43;3.45;;;;;;;;;;5075525;28;20024;-89
2022/04/15 08:00:20;;;;;;;16.33;2.50;;;;;;;;;;5073536;28;20051;-90
2022/04/15 08:02:47;;;;;;;12.57;3.08;;;;;;;;;;5071049;28;20029;-89
2022/04/15 08:05:26;;;;;;;13.00;2.63;;;;;;;;;;5070491;28;20024;-88
2022/04/15 08:07:52;;;;;;;12.10;1.77;;;;;;;;;;5073690;28;20046;-89
2022/04/15 08:10:19;;;;;;;10.93;2.25;;;;;;;;;;5062405;28;20050;-88
2022/04/15 08:12:45;;;;;;;16.60;2.55;;;;;;;;;;5091023;28;20107;-88
2022/04/15 08:15:14;;;;;;;8.93;2.10;;;;;;;;;;5075805;28;20054;-88
2022/04/15 08:17:40;;;;;;;17.02;2.08;;;;;;;;;;5075030;28;20141;-88
2022/04/15 08:20:06;;;;;;;14.43;2.25;;;;;;;;;;5074976;28;20383;-89
2022/04/15 08:22:36;;;;;;;10.98;1.95;;;;;;;;;;5075680;28;20031;-89
2022/04/15 08:25:13;;;;;;;12.35;1.90;;;;;;;;;;5093388;28;20024;-89
2022/04/15 08:27:40;;;;;;;13.25;2.47;;;;;;;;;;5074784;28;20494;-89
2022/04/15 08:30:16;;;;;;;13.68;1.88;;;;;;;;;;5074345;28;21834;-89
2022/04/15 08:33:05;;;;;;;15.40;2.50;;;;;;;;;;5070905;28;20028;-89
2022/04/15 08:35:32;;;;;;;11.13;1.80;;;;;;;;;;5074160;28;20032;-88
2022/04/15 08:41:08;;;;;;;18.17;3.03;;;;;;;;;;5082110;28;20049;-88
2022/04/15 08:43:34;;;;;;;15.27;2.45;;;;;;;;;;5067279;28;20378;-88
2022/04/15 08:46:16;;;;;;;14.07;3.08;;;;;;;;;;5072939;28;20016;-88
2022/04/15 08:48:43;;;;;;;15.25;2.63;;;;;;;;;;5069797;28;20438;-88
2022/04/15 08:51:10;;;;;;;13.55;2.25;;;;;;;;;;5070710;28;20120;-89
2022/04/15 08:53:37;;;;;;;19.67;3.30;;;;;;;;;;5070058;28;20078;-89
2022/04/15 08:56:03;;;;;;;14.10;2.55;;;;;;;;;;5065668;28;20115;-88
2022/04/15 08:58:30;;;;;;;15.65;3.45;;;;;;;;;;5072297;28;20054;-88
2022/04/15 09:01:02;;;;;;;12.40;2.92;;;;;;;;;;5068922;28;20812;-88
2022/04/15 09:03:29;;;;;;;16.27;3.20;;;;;;;;;;5072395;28;20028;-89
2022/04/15 09:05:57;;;;;;;15.65;2.40;;;;;;;;;;5081981;28;20502;-88
2022/04/15 09:08:25;;;;;;;10.23;2.63;;;;;;;;;;5073481;28;20414;-88
2022/04/15 09:10:56;;;;;;;13.27;2.58;;;;;;;;;;5077230;28;20051;-89
2022/04/15 09:13:23;;;;;;;12.60;2.53;;;;;;;;;;5095133;28;20089;-89
2022/04/15 09:15:52;;;;;;;17.00;2.80;;;;;;;;;;5076798;28;20035;-88
2022/04/15 09:18:32;;;;;;;14.60;2.92;;;;;;;;;;5076701;28;20028;-88
2022/04/15 09:21:17;;;;;;;12.50;2.75;;;;;;;;;;5077385;28;20031;-88
2022/04/15 09:23:51;;;;;;;16.00;2.65;;;;;;;;;;5093785;28;20074;-89
2022/04/15 09:26:18;;;;;;;14.55;2.20;;;;;;;;;;5065769;28;20032;-89
2022/04/15 09:28:45;;;;;;;16.65;2.90;;;;;;;;;;5071938;28;20030;-88
2022/04/15 09:31:16;;;;;;;11.82;2.17;;;;;;;;;;5076772;28;20043;-89
2022/04/15 09:33:52;;;;;;;13.40;2.30;;;;;;;;;;5082433;28;20032;-88
2022/04/15 09:36:28;;;;;;;16.20;2.70;;;;;;;;;;5070702;28;20528;-87
2022/04/15 09:39:00;;;;;;;15.85;3.30;;;;;;;;;;5065116;28;20028;-89
2022/04/15 09:41:29;;;;;;;12.80;2.30;;;;;;;;;;5076441;28;20024;-89
2022/04/15 09:43:56;;;;;;;14.88;2.80;;;;;;;;;;5076616;28;20119;-88
2022/04/15 09:46:24;;;;;;;16.13;2.63;;;;;;;;;;5076501;28;20411;-88
2022/04/15 09:49:02;;;;;;;16.75;3.40;;;;;;;;;;5078220;28;20494;-88
2022/04/15 09:51:29;;;;;;;14.60;2.75;;;;;;;;;;5090228;28;20035;-89
2022/04/15 09:54:03;;;;;;;20.20;3.05;;;;;;;;;;5079612;28;20382;-89
2022/04/15 09:56:32;;;;;;;13.93;2.40;;;;;;;;;;5074479;28;20028;-88
2022/04/15 09:59:18;;;;;;;15.35;2.55;;;;;;;;;;5075410;28;20383;-90
2022/04/15 10:01:45;;;;;;;19.67;3.70;;;;;;;;;;5056424;28;20060;-89
2022/04/15 10:04:15;;;;;;;11.15;3.33;;;;;;;;;;5051283;28;20477;-89
2022/04/15 10:06:42;;;;;;;12.63;3.45;;;;;;;;;;5051169;28;20024;-89
2022/04/15 10:09:12;;;;;;;15.82;3.25;;;;;;;;;;5054470;28;20017;-88
2022/04/15 10:11:40;;;;;;;16.02;3.05;;;;;;;;;;5052098;28;20034;-89
2022/04/15 10:14:06;;;;;;;14.00;3.55;;;;;;;;;;5052640;28;20070;-89
2022/04/15 10:16:44;;;;;;;15.57;3.33;;;;;;;;;;5053563;28;20082;-89
2022/04/15 10:19:17;;;;;;;13.23;3.92;;;;;;;;;;5060633;28;20024;-89
2022/04/15 10:21:50;;;;;;;17.80;4.70;;;;;;;;;;5055491;28;20369;-89
2022/04/15 10:24:18;;;;;;;15.50;3.67;;;;;;;;;;5056320;28;20025;-89
2022/04/15 10:26:52;;;;;;;14.57;3.67;;;;;;;;;;5056836;28;20020;-89
2022/04/15 10:29:20;;;;;;;12.98;3.25;;;;;;;;;;5072641;28;20025;-87
2022/04/15 10:32:11;;;;;;;12.70;4.15;;;;;;;;;;5052591;28;20024;-89
2022/04/15 10:34:47;;;;;;;24.55;4.35;;;;;;;;;;5047145;28;20376;-89
2022/04/15 10:37:38;;;;;;;12.70;4.38;;;;;;;;;;5065516;28;20150;-88
2022/04/15 10:43:21;;;;;;;17.00;5.10;;;;;;;;;;5072788;28;20483;-89
2022/04/15 10:45:48;;;;;;;19.67;4.95;;;;;;;;;;5056038;28;20024;-89
2022/04/15 10:48:28;;;;;;;18.40;4.97;;;;;;;;;;5074030;28;20078;-89
2022/04/15 10:50:54;;;;;;;11.57;4.82;;;;;;;;;;5057338;28;20031;-88
2022/04/15 10:53:25;;;;;;;15.52;4.43;;;;;;;;;;5057609;28;20028;-89
2022/04/15 10:55:54;;;;;;;17.83;5.53;;;;;;;;;;5058622;28;20032;-89
2022/04/15 10:58:21;;;;;;;15.38;4.65;;;;;;;;;;5055743;28;20028;-89
2022/04/15 11:01:16;;;;;;;17.63;4.13;;;;;;;;;;4716865;28;10000369;-89
2022/04/15 11:03:42;;;;;;;15.38;3.47;;;;;;;;;;5079411;28;20899;-89
2022/04/15 11:06:26;;;;;;;14.32;2.67;;;;;;;;;;5079069;28;20044;-90
2022/04/15 11:08:52;;;;;;;13.95;3.60;;;;;;;;;;5077599;28;20107;-89
2022/04/15 11:14:13;;;;;;;13.43;3.63;;;;;;;;;;5086760;28;20035;-90
2022/04/15 11:16:53;;;;;;;16.83;3.25;;;;;;;;;;5072814;28;20078;-89
2022/04/15 11:19:22;;;;;;;13.13;3.65;;;;;;;;;;5065320;28;20485;-89
2022/04/15 11:21:55;;;;;;;18.58;4.10;;;;;;;;;;5074873;28;20463;-89
2022/04/15 11:24:25;;;;;;;15.25;2.58;;;;;;;;;;4731621;28;10000318;-89
2022/04/15 11:26:56;;;;;;;13.05;3.33;;;;;;;;;;5068861;28;20387;-88
2022/04/15 11:29:38;;;;;;;19.45;3.60;;;;;;;;;;5075255;28;20476;-89
2022/04/15 11:32:06;;;;;;;13.77;2.70;;;;;;;;;;5078965;28;20390;-89
2022/04/15 11:34:33;;;;;;;16.70;3.33;;;;;;;;;;5078745;28;20044;-88
2022/04/15 11:37:04;;;;;;;16.50;3.00;;;;;;;;;;5075064;28;20498;-89
2022/04/15 11:39:45;;;;;;;15.05;2.95;;;;;;;;;;5075048;28;20031;-86
2022/04/15 11:42:12;;;;;;;10.65;2.88;;;;;;;;;;5089624;28;20488;-87
2022/04/15 11:44:44;;;;;;;12.55;2.45;;;;;;;;;;5073787;28;20016;-88
2022/04/15 11:47:18;;;;;;;15.60;2.92;;;;;;;;;;5086940;28;20020;-88
2022/04/15 11:49:47;;;;;;;14.50;2.92;;;;;;;;;;5091851;28;20115;-89
2022/04/15 11:52:25;;;;;;;13.43;2.60;;;;;;;;;;4371628;28;10000591;-88
2022/04/15 11:54:52;;;;;;;13.00;1.92;;;;;;;;;;4721829;28;9999637;-88
2022/04/15 11:57:21;;;;;;;16.25;2.88;;;;;;;;;;5082152;28;20050;-88
2022/04/15 11:59:49;;;;;;;17.45;2.03;;;;;;;;;;5081666;28;20058;-89
2022/04/15 12:02:20;;;;;;;10.15;2.42;;;;;;;;;;5083183;28;20475;-89
2022/04/15 12:04:57;;;;;;;12.77;2.60;;;;;;;;;;5072176;28;20046;-88
2022/04/15 12:07:24;;;;;;;12.13;2.58;;;;;;;;;;5063871;28;20430;-88
2022/04/15 12:09:51;;;;;;;14.88;2.63;;;;;;;;;;5074643;28;20054;-88
2022/04/15 12:12:19;;;;;;;11.35;2.55;;;;;;;;;;5074548;28;20061;-87
2022/04/15 12:14:46;;;;;;;15.32;2.53;;;;;;;;;;5072154;28;20035;-88
2022/04/15 12:17:14;;;;;;;13.55;2.45;;;;;;;;;;4374507;28;10000593;-89
2022/04/15 12:19:41;;;;;;;11.23;2.65;;;;;;;;;;5065435;28;20438;-89
2022/04/15 12:22:08;;;;;;;14.93;2.38;;;;;;;;;;5074689;28;20020;-89
2022/04/15 12:24:39;;;;;;;15.48;2.85;;;;;;;;;;5075822;28;20020;-89
2022/04/15 12:27:06;;;;;;;14.50;2.40;;;;;;;;;;5092576;28;20699;-88
2022/04/15 12:29:47;;;;;;;10.35;2.38;;;;;;;;;;5069937;28;20012;-88
2022/04/15 12:32:17;;;;;;;12.40;2.22;;;;;;;;;;5068440;28;20024;-89
2022/04/15 12:34:47;;;;;;;12.88;2.15;;;;;;;;;;5073583;28;20024;-89
2022/04/15 12:37:35;;;;;;;19.25;2.90;;;;;;;;;;5081276;28;20459;-88
2022/04/15 12:40:30;;;;;;;13.98;2.60;;;;;;;;;;5068450;28;20028;-88
2022/04/15 12:42:57;;;;;;;15.85;2.58;;;;;;;;;;5086809;28;20028;-88
2022/04/15 12:45:33;;;;;;;13.85;2.33;;;;;;;;;;5079145;28;20135;-88
2022/04/15 12:48:10;;;;;;;15.02;2.92;;;;;;;;;;5073755;28;20020;-89
2022/04/15 12:50:58;;;;;;;10.60;2.40;;;;;;;;;;5067095;28;20487;-89
2022/04/15 12:53:24;;;;;;;16.85;2.63;;;;;;;;;;5086463;28;20477;-89
2022/04/15 12:55:52;;;;;;;16.25;3.88;;;;;;;;;;5073671;28;20109;-88
2022/04/15 12:58:20;;;;;;;13.90;3.00;;;;;;;;;;5082529;28;20035;-88
2022/04/15 13:00:48;;;;;;;11.60;2.28;;;;;;;;;;5072653;28;20115;-89
2022/04/15 13:03:17;;;;;;;12.10;2.78;;;;;;;;;;5067745;28;20040;-89
2022/04/15 13:05:47;;;;;;;12.27;2.80;;;;;;;;;;5090566;28;20098;-89
2022/04/15 13:08:15;;;;;;;10.30;2.85;;;;;;;;;;5071517;28;20028;-89
2022/04/15 13:10:42;;;;;;;12.45;3.03;;;;;;;;;;5073483;28;20021;-89
2022/04/15 13:13:09;;;;;;;13.88;2.53;;;;;;;;;;5072286;28;20105;-89
2022/04/15 13:15:35;;;;;;;9.68;2.63;;;;;;;;;;5086473;28;20020;-89
2022/04/15 13:18:01;;;;;;;11.80;3.35;;;;;;;;;;5074182;28;20028;-90
2022/04/15 13:20:29;;;;;;;10.95;3.08;;;;;;;;;;5071345;28;20110;-89
2022/04/15 13:22:58;;;;;;;15.07;3.42;;;;;;;;;;5071432;28;20127;-89
2022/04/15 13:25:24;;;;;;;11.57;2.83;;;;;;;;;;5066848;28;20070;-89
2022/04/15 13:28:02;;;;;;;9.73;2.85;;;;;;;;;;5090249;28;20498;-89
2022/04/15 13:30:28;;;;;;;13.40;3.63;;;;;;;;;;5080052;28;20024;-89
2022/04/15 13:33:02;;;;;;;13.77;4.05;;;;;;;;;;5074684;28;20039;-89
2022/04/15 13:35:33;;;;;;;19.02;4.22;;;;;;;;;;5072431;28;20115;-89
2022/04/15 13:38:00;;;;;;;15.25;4.68;;;;;;;;;;5073973;28;20493;-88
2022/04/15 13:40:32;;;;;;;20.85;5.15;;;;;;;;;;5069730;28;20031;-88
2022/04/15 13:42:59;;;;;;;13.75;4.00;;;;;;;;;;5076043;28;20028;-88
2022/04/15 13:45:26;;;;;;;17.52;4.45;;;;;;;;;;5073196;28;20063;-89
2022/04/15 13:47:52;;;;;;;18.75;4.38;;;;;;;;;;5075772;28;20024;-88
2022/04/15 13:50:21;;;;;;;15.73;4.40;;;;;;;;;;5080083;28;20028;-89
2022/04/15 13:58:17;;;;;;;18.00;3.92;;;;;;;;;;5095413;28;20089;-89
2022/04/15 14:00:44;;;;;;;19.63;4.50;;;;;;;;;;5080711;28;20502;-89
2022/04/15 14:03:13;;;;;;;18.73;4.22;;;;;;;;;;5075255;28;20040;-88
2022/04/15 14:05:41;;;;;;;18.27;4.25;;;;;;;;;;5074622;28;20390;-89
2022/04/15 14:08:13;;;;;;;15.82;4.47;;;;;;;;;;5078087;28;20086;-88
2022/04/15 14:10:40;;;;;;;17.80;4.70;;;;;;;;;;5076515;28;20042;-89
2022/04/15 14:13:06;;;;;;;21.52;4.28;;;;;;;;;;5074214;28;20028;-88
2022/04/15 14:15:32;;;;;;;17.45;4.53;;;;;;;;;;5076690;28;20148;-88
2022/04/15 14:18:01;;;;;;;16.38;4.55;;;;;;;;;;5076322;28;20028;-88
2022/04/15 14:20:28;;;;;;;19.00;5.05;;;;;;;;;;5076868;28;20486;-88
2022/04/15 14:22:55;;;;;;;13.52;4.20;;;;;;;;;;5074503;28;20086;-88
2022/04/15 14:25:21;;;;;;;24.00;5.88;;;;;;;;;;5069950;28;20544;-88
2022/04/15 14:27:50;;;;;;;21.02;5.28;;;;;;;;;;5070491;28;20497;-88
2022/04/15 14:30:16;;;;;;;34.40;7.70;;;;;;;;;;5074629;28;20050;-87
2022/04/15 14:32:49;;;;;;;23.98;6.35;;;;;;;;;;5072004;28;20043;-87
2022/04/15 14:35:16;;;;;;;20.10;5.95;;;;;;;;;;5076458;28;20031;-87
2022/04/15 14:37:44;;;;;;;22.35;5.72;;;;;;;;;;5086672;28;20069;-88
2022/04/15 14:40:11;;;;;;;21.40;5.55;;;;;;;;;;5086730;28;20051;-88
2022/04/15 14:42:51;;;;;;;26.42;5.80;;;;;;;;;;5075102;28;20038;-88
2022/04/15 14:45:19;;;;;;;21.30;6.60;;;;;;;;;;5091363;28;20024;-88
2022/04/15 14:47:47;;;;;;;19.85;7.13;;;;;;;;;;5094922;28;20055;-88
2022/04/15 14:50:13;;;;;;;24.35;6.15;;;;;;;;;;5075679;28;20552;-88
2022/04/15 14:52:45;;;;;;;25.40;7.15;;;;;;;;;;5077441;28;20039;-88
2022/04/15 14:55:12;;;;;;;24.73;7.70;;;;;;;;;;5075806;28;20066;-88
2022/04/15 14:57:39;;;;;;;29.70;9.38;;;;;;;;;;5068136;28;20433;-88
2022/04/15 15:00:07;;;;;;;26.00;8.57;;;;;;;;;;5069977;28;20514;-88